Tielt, Belgium
Current Conditions -  °F | °C
As of 12:50 PM on Tuesday 21 Oct 2014 (Local Time) from EBOS Reporting Station
Broken Clouds Broken Clouds  
Wind Chill: 59°   Ceiling: 4500
Heat Index: 59°   Visibility: 6mi
Dew Point: 48°   Wind: 31mph
Humidity: 67%   Direction: 270°W
Pressure: 29.56"   Gusts: NA
Location:  51°N, 3.33°E
Report Text: EBOS 211050Z 27027KT 9999 FEW006 SCT016 BKN045 15/09 Q1001 BECMG 28030G40KT
Loading
Personal Weather Stations






























Interactive Weather Map
Tropical Storm Tracking
New forecast layout! Learn more

10-Day Weather Forecast

Advertisements
Track Severe Weather on mobile